createdAt,value
2022-08-31T00:01:44.584Z,58.46
2022-08-31T00:04:13.103Z,58.32
2022-08-31T00:06:39.548Z,58.04
2022-08-31T00:09:07.070Z,57.98
2022-08-31T00:11:36.069Z,58.23
2022-08-31T00:14:12.432Z,58.77
2022-08-31T00:16:43.329Z,59.39
2022-08-31T00:19:10.426Z,58.65
2022-08-31T00:21:39.020Z,59.40
2022-08-31T00:24:06.250Z,58.21
2022-08-31T00:26:32.903Z,58.97
2022-08-31T00:28:59.394Z,58.66
2022-08-31T00:31:25.898Z,59.03
2022-08-31T00:33:52.664Z,59.08
2022-08-31T00:36:24.516Z,58.53
2022-08-31T00:38:51.885Z,58.55
2022-08-31T00:41:21.596Z,59.48
2022-08-31T00:43:55.260Z,59.39
2022-08-31T00:46:30.777Z,60.24
2022-08-31T00:49:10.880Z,60.55
2022-08-31T00:51:49.685Z,61.63
2022-08-31T00:54:20.392Z,61.59
2022-08-31T00:56:47.243Z,62.21
2022-08-31T00:59:15.046Z,63.11
2022-08-31T01:01:41.656Z,61.70
2022-08-31T01:04:08.068Z,61.21
2022-08-31T01:06:34.868Z,62.03
2022-08-31T01:09:04.508Z,63.45
2022-08-31T01:11:31.774Z,65.20
2022-08-31T01:13:58.523Z,67.73
2022-08-31T01:16:33.154Z,68.86
2022-08-31T01:19:02.636Z,70.26
2022-08-31T01:21:37.964Z,72.32
2022-08-31T01:24:05.015Z,78.90
2022-08-31T01:26:32.821Z,75.71
2022-08-31T01:29:03.957Z,82.65
2022-08-31T01:31:41.119Z,80.49
2022-08-31T01:34:07.920Z,86.83
2022-08-31T01:36:36.868Z,84.10
2022-08-31T01:39:05.665Z,84.11
2022-08-31T01:41:32.366Z,85.67
2022-08-31T01:43:58.841Z,92.33
2022-08-31T01:46:25.412Z,91.91
2022-08-31T01:48:52.429Z,91.74
2022-08-31T01:51:21.926Z,91.54
2022-08-31T01:53:49.803Z,91.43
2022-08-31T01:56:23.885Z,91.12
2022-08-31T01:58:50.560Z,92.42
2022-08-31T02:01:37.874Z,92.10
2022-08-31T02:04:05.806Z,94.70
2022-08-31T02:06:33.409Z,96.75
2022-08-31T02:09:01.010Z,97.68
2022-08-31T02:11:27.355Z,96.85
2022-08-31T02:13:53.968Z,95.57
2022-08-31T02:16:20.372Z,95.58
2022-08-31T02:18:46.817Z,96.10
2022-08-31T02:21:13.698Z,96.52
2022-08-31T02:23:40.948Z,97.06
2022-08-31T02:26:07.485Z,95.47
2022-08-31T02:28:34.055Z,96.40
2022-08-31T02:31:00.472Z,96.26
2022-08-31T02:33:27.073Z,97.48
2022-08-31T02:35:53.579Z,98.17
2022-08-31T02:38:22.838Z,97.22
2022-08-31T02:40:51.211Z,96.92
2022-08-31T02:43:24.559Z,97.10
2022-08-31T02:45:53.031Z,98.66
2022-08-31T02:48:20.837Z,99.87
2022-08-31T02:50:49.942Z,100.00
2022-08-31T02:53:18.758Z,99.71
2022-08-31T02:55:45.270Z,100.00
2022-08-31T02:58:12.423Z,100.00
2022-08-31T03:00:40.624Z,100.00
2022-08-31T03:03:07.029Z,100.00
2022-08-31T03:05:33.440Z,100.00
2022-08-31T03:07:59.806Z,100.00
2022-08-31T03:10:26.845Z,100.00
2022-08-31T03:12:53.691Z,100.00
2022-08-31T03:15:22.399Z,100.00
2022-08-31T03:17:48.796Z,100.00
2022-08-31T03:20:16.549Z,100.00
2022-08-31T03:22:45.446Z,100.00
2022-08-31T03:25:12.451Z,100.00
2022-08-31T03:27:39.045Z,100.00
2022-08-31T03:30:08.544Z,100.00
2022-08-31T03:32:35.009Z,100.00
2022-08-31T03:35:02.378Z,100.00
2022-08-31T03:37:29.017Z,100.00
2022-08-31T03:39:55.817Z,100.00
2022-08-31T03:42:22.178Z,100.00
2022-08-31T03:44:49.034Z,100.00
2022-08-31T03:47:16.676Z,100.00
2022-08-31T03:49:43.912Z,100.00
2022-08-31T03:52:10.813Z,100.00
2022-08-31T03:54:37.337Z,100.00
2022-08-31T03:57:07.660Z,100.00
2022-08-31T03:59:34.018Z,100.00
2022-08-31T04:02:00.510Z,100.00
2022-08-31T04:04:26.963Z,100.00
2022-08-31T04:06:53.342Z,100.00
2022-08-31T04:09:19.861Z,100.00
2022-08-31T04:11:46.221Z,100.00
2022-08-31T04:14:15.341Z,100.00
2022-08-31T04:16:43.700Z,100.00
2022-08-31T04:19:11.249Z,100.00
2022-08-31T04:21:37.846Z,100.00
2022-08-31T04:24:04.649Z,100.00
2022-08-31T04:26:36.329Z,100.00
2022-08-31T04:29:07.698Z,100.00
2022-08-31T04:31:37.936Z,100.00
2022-08-31T04:34:05.653Z,100.00
2022-08-31T04:36:32.598Z,100.00
2022-08-31T04:39:01.050Z,100.00
2022-08-31T04:41:29.668Z,100.00
2022-08-31T04:43:58.453Z,100.00
2022-08-31T04:46:25.734Z,100.00
2022-08-31T04:48:52.333Z,100.00
2022-08-31T04:51:22.403Z,100.00
2022-08-31T04:53:49.869Z,100.00
2022-08-31T04:56:20.421Z,100.00
2022-08-31T04:58:50.292Z,100.00
2022-08-31T05:01:20.164Z,100.00
2022-08-31T05:03:51.059Z,100.00
2022-08-31T05:06:19.843Z,100.00
2022-08-31T05:08:51.812Z,100.00
2022-08-31T05:11:24.280Z,100.00
2022-08-31T05:13:52.585Z,100.00
2022-08-31T05:16:19.870Z,100.00
2022-08-31T05:18:48.009Z,100.00
2022-08-31T05:21:20.161Z,100.00
2022-08-31T05:23:48.457Z,100.00
2022-08-31T05:26:23.576Z,100.00
2022-08-31T05:28:53.990Z,100.00
2022-08-31T05:31:21.505Z,100.00
2022-08-31T05:33:47.935Z,100.00
2022-08-31T05:36:14.637Z,100.00
2022-08-31T05:38:41.924Z,100.00
2022-08-31T05:41:08.658Z,100.00
2022-08-31T05:43:35.044Z,100.00
2022-08-31T05:46:04.576Z,100.00
2022-08-31T05:48:36.386Z,100.00
2022-08-31T05:51:06.862Z,100.00
2022-08-31T05:53:34.964Z,100.00
2022-08-31T05:56:06.629Z,100.00
2022-08-31T05:58:33.932Z,100.00
2022-08-31T06:01:01.363Z,100.00
2022-08-31T06:03:29.162Z,100.00
2022-08-31T06:05:55.508Z,98.26
2022-08-31T06:08:27.304Z,97.54
2022-08-31T06:11:00.737Z,96.65
2022-08-31T06:13:27.149Z,97.46
2022-08-31T06:15:53.604Z,96.55
2022-08-31T06:18:20.957Z,95.14
2022-08-31T06:20:47.834Z,96.17
2022-08-31T06:23:14.218Z,93.28
2022-08-31T06:25:40.617Z,93.17
2022-08-31T06:28:07.350Z,90.59
2022-08-31T06:30:54.328Z,91.55
2022-08-31T06:33:21.917Z,92.73
2022-08-31T06:35:48.250Z,91.30
2022-08-31T06:38:14.644Z,90.66
2022-08-31T06:40:41.013Z,88.22
2022-08-31T06:43:07.814Z,89.35
2022-08-31T06:45:34.165Z,87.20
2022-08-31T06:48:00.762Z,84.49
2022-08-31T06:50:27.645Z,87.04
2022-08-31T06:52:55.527Z,87.52
2022-08-31T06:55:22.365Z,86.45
2022-08-31T06:57:48.717Z,87.07
2022-08-31T07:00:15.385Z,87.40
2022-08-31T07:02:41.761Z,85.96
2022-08-31T07:05:11.505Z,87.60
2022-08-31T07:07:41.468Z,87.28
2022-08-31T07:10:10.420Z,86.35
2022-08-31T07:12:36.864Z,87.57
2022-08-31T07:15:03.613Z,87.31
2022-08-31T07:17:32.484Z,87.01
2022-08-31T07:19:58.820Z,88.17
2022-08-31T07:22:25.171Z,86.39
2022-08-31T07:24:51.534Z,84.34
2022-08-31T07:27:18.311Z,86.78
2022-08-31T07:29:44.817Z,85.85
2022-08-31T07:32:13.624Z,87.69
2022-08-31T07:34:40.316Z,85.96
2022-08-31T07:37:25.965Z,83.45
2022-08-31T07:40:11.391Z,82.02
2022-08-31T07:42:40.735Z,82.00
2022-08-31T07:45:12.934Z,83.20
2022-08-31T07:47:46.919Z,84.76
2022-08-31T07:50:15.715Z,83.74
2022-08-31T07:52:52.959Z,82.69
2022-08-31T07:55:22.447Z,85.08
2022-08-31T07:57:50.712Z,85.27
2022-08-31T08:00:21.359Z,83.43
2022-08-31T08:02:52.720Z,83.15
2022-08-31T08:05:27.546Z,82.20
2022-08-31T08:07:58.358Z,82.82
2022-08-31T08:10:26.142Z,83.21
2022-08-31T08:12:57.149Z,83.45
2022-08-31T08:15:25.025Z,84.15
2022-08-31T08:17:51.837Z,83.90
2022-08-31T08:20:19.384Z,80.58
2022-08-31T08:23:00.746Z,81.41
2022-08-31T08:25:27.158Z,80.18
2022-08-31T08:27:54.665Z,83.82
2022-08-31T08:30:21.658Z,81.50
2022-08-31T08:32:48.085Z,80.08
2022-08-31T08:35:14.635Z,80.20
2022-08-31T08:37:57.874Z,77.38
2022-08-31T08:40:43.127Z,79.35
2022-08-31T08:43:12.801Z,75.54
2022-08-31T08:45:40.161Z,75.63
2022-08-31T08:48:11.199Z,76.81
2022-08-31T08:50:40.401Z,76.30
2022-08-31T08:53:10.643Z,71.60
2022-08-31T08:55:39.771Z,72.88
2022-08-31T08:58:10.337Z,71.22
2022-08-31T09:00:46.424Z,74.29
2022-08-31T09:03:33.154Z,68.97
2022-08-31T09:06:40.533Z,66.07
2022-08-31T09:09:32.627Z,66.80
2022-08-31T09:12:30.744Z,65.47
2022-08-31T09:15:37.700Z,65.61
2022-08-31T09:18:15.066Z,62.39
2022-08-31T09:20:41.519Z,63.58
2022-08-31T09:23:08.172Z,61.81
2022-08-31T09:25:45.091Z,59.88
2022-08-31T09:28:14.858Z,58.76
2022-08-31T09:30:43.989Z,58.06
2022-08-31T09:33:21.825Z,56.03
2022-08-31T09:35:56.516Z,57.42
2022-08-31T09:38:29.910Z,57.34
2022-08-31T09:40:57.640Z,57.56
2022-08-31T09:43:24.853Z,55.57
2022-08-31T09:45:54.274Z,53.45
2022-08-31T09:48:51.549Z,55.28
2022-08-31T09:51:29.454Z,54.82
2022-08-31T09:54:25.897Z,53.12
2022-08-31T09:56:55.574Z,53.78
2022-08-31T09:59:31.156Z,51.03
2022-08-31T10:02:00.625Z,49.98
2022-08-31T10:04:36.554Z,50.98
2022-08-31T10:07:24.920Z,51.56
2022-08-31T10:09:59.482Z,51.86
2022-08-31T10:12:47.032Z,51.54
2022-08-31T10:15:31.911Z,56.43
2022-08-31T10:18:24.633Z,54.49
2022-08-31T10:20:59.508Z,46.36
2022-08-31T10:23:56.314Z,46.46
2022-08-31T10:26:35.886Z,44.66
2022-08-31T10:29:08.368Z,44.88
2022-08-31T10:31:45.281Z,44.18
2022-08-31T10:34:42.062Z,45.60
2022-08-31T10:37:15.988Z,44.76
2022-08-31T10:39:50.374Z,44.92
2022-08-31T10:42:38.304Z,42.39
2022-08-31T10:45:18.249Z,43.22
2022-08-31T10:47:49.092Z,44.58
2022-08-31T10:50:25.800Z,46.32
2022-08-31T10:53:17.299Z,44.47
2022-08-31T10:55:56.194Z,44.57
2022-08-31T10:58:34.660Z,43.37
2022-08-31T11:01:13.939Z,41.94
2022-08-31T11:03:52.390Z,42.61
2022-08-31T11:06:51.293Z,42.97
2022-08-31T11:09:26.348Z,45.57
2022-08-31T11:12:07.128Z,47.17
2022-08-31T11:14:36.601Z,42.50
2022-08-31T11:17:19.144Z,43.05
2022-08-31T11:20:33.426Z,45.40
2022-08-31T11:23:15.208Z,46.42
2022-08-31T11:26:23.996Z,45.19
2022-08-31T11:28:56.109Z,46.75
2022-08-31T11:31:27.205Z,45.20
2022-08-31T11:34:16.054Z,47.50
2022-08-31T11:36:45.585Z,47.68
2022-08-31T11:39:11.874Z,48.14
2022-08-31T11:41:46.709Z,43.86
2022-08-31T11:44:29.627Z,41.52
2022-08-31T11:47:13.000Z,40.71
2022-08-31T11:49:46.682Z,39.54
2022-08-31T11:52:29.695Z,40.11
2022-08-31T11:55:07.917Z,39.17
2022-08-31T11:58:07.141Z,41.13
2022-08-31T12:00:58.107Z,39.13
2022-08-31T12:03:38.767Z,42.04
2022-08-31T12:06:11.965Z,40.80
2022-08-31T12:08:54.519Z,43.56
2022-08-31T12:11:40.869Z,42.78
2022-08-31T12:14:33.064Z,43.53
2022-08-31T12:17:31.045Z,45.25
2022-08-31T12:20:12.312Z,46.74
2022-08-31T12:23:33.018Z,46.59
2022-08-31T12:26:40.737Z,46.77
2022-08-31T12:29:27.351Z,46.16
2022-08-31T12:32:11.051Z,45.89
2022-08-31T12:34:57.385Z,45.25
2022-08-31T12:37:23.775Z,48.21
2022-08-31T12:40:21.861Z,48.18
2022-08-31T12:43:18.230Z,50.12
2022-08-31T12:46:12.577Z,48.55
2022-08-31T12:48:53.940Z,47.02
2022-08-31T12:51:23.244Z,51.32
2022-08-31T12:54:14.586Z,50.04
2022-08-31T12:57:20.182Z,48.02
2022-08-31T13:00:30.145Z,47.09
2022-08-31T13:03:07.371Z,48.65
2022-08-31T13:05:36.767Z,50.17
2022-08-31T13:08:22.567Z,47.66
2022-08-31T13:10:49.131Z,48.23
2022-08-31T13:13:29.580Z,49.50
2022-08-31T13:16:04.398Z,50.40
2022-08-31T13:18:31.379Z,47.86
2022-08-31T13:21:06.534Z,47.69
2022-08-31T13:23:39.620Z,43.48
2022-08-31T13:26:20.501Z,47.42
2022-08-31T13:28:59.632Z,46.45
2022-08-31T13:31:32.797Z,44.97
2022-08-31T13:34:07.178Z,45.17
2022-08-31T13:36:40.024Z,45.86
2022-08-31T13:39:21.802Z,47.48
2022-08-31T13:42:33.075Z,45.65
2022-08-31T13:45:07.568Z,43.22
2022-08-31T13:47:48.888Z,43.82
2022-08-31T13:50:27.775Z,41.87
2022-08-31T13:53:25.350Z,43.49
2022-08-31T13:55:48.638Z,43.81
2022-08-31T13:58:31.651Z,43.59
2022-08-31T14:01:17.864Z,43.29
2022-08-31T14:03:57.112Z,41.96
2022-08-31T14:06:28.129Z,41.96
2022-08-31T14:09:05.651Z,41.24
2022-08-31T14:11:33.569Z,42.26
2022-08-31T14:14:07.306Z,42.75
2022-08-31T14:16:51.886Z,42.17
2022-08-31T14:19:32.822Z,44.09
2022-08-31T14:22:16.239Z,43.98
2022-08-31T14:24:43.597Z,41.21
2022-08-31T14:27:11.988Z,40.85
2022-08-31T14:29:40.893Z,42.42
2022-08-31T14:32:07.451Z,38.86
2022-08-31T14:34:48.505Z,39.12
2022-08-31T14:37:23.785Z,37.75
2022-08-31T14:40:07.731Z,39.49
2022-08-31T14:42:37.328Z,40.26
2022-08-31T14:45:05.516Z,40.42
2022-08-31T14:47:36.077Z,39.48
2022-08-31T14:50:07.089Z,38.49
2022-08-31T14:52:42.493Z,39.72
2022-08-31T14:55:11.032Z,38.42
2022-08-31T14:57:42.049Z,38.57
2022-08-31T15:00:11.604Z,38.47
2022-08-31T15:02:38.644Z,37.77
2022-08-31T15:05:09.469Z,38.27
2022-08-31T15:07:40.265Z,38.06
2022-08-31T15:10:12.666Z,38.42
2022-08-31T15:12:39.226Z,38.45
2022-08-31T15:15:07.490Z,40.51
2022-08-31T15:17:35.950Z,41.37
2022-08-31T15:20:04.351Z,40.27
2022-08-31T15:22:31.276Z,42.09
2022-08-31T15:24:58.215Z,40.14
2022-08-31T15:27:29.175Z,37.94
2022-08-31T15:29:59.130Z,38.04
2022-08-31T15:32:25.657Z,39.46
2022-08-31T15:34:57.689Z,39.40
2022-08-31T15:37:28.074Z,40.47
2022-08-31T15:39:59.810Z,39.97
2022-08-31T15:42:26.252Z,40.21
2022-08-31T15:45:00.114Z,39.85
2022-08-31T15:47:48.839Z,39.77
2022-08-31T15:50:19.178Z,40.43
2022-08-31T15:52:51.983Z,40.33
2022-08-31T15:55:26.386Z,40.75
2022-08-31T15:57:54.769Z,41.39
2022-08-31T16:00:26.146Z,44.14
2022-08-31T16:02:57.357Z,42.27
2022-08-31T16:05:28.244Z,42.20
2022-08-31T16:07:57.161Z,42.75
2022-08-31T16:10:23.557Z,43.28
2022-08-31T16:12:51.854Z,43.01
2022-08-31T16:15:19.650Z,43.85
2022-08-31T16:17:47.683Z,43.74
2022-08-31T16:20:14.641Z,44.34
2022-08-31T16:22:43.010Z,44.96
2022-08-31T16:25:14.618Z,45.20
2022-08-31T16:27:43.501Z,44.86
2022-08-31T16:30:12.319Z,45.48
2022-08-31T16:32:39.177Z,44.27
2022-08-31T16:35:06.628Z,45.41
2022-08-31T16:37:33.678Z,45.41
2022-08-31T16:40:00.295Z,45.65
2022-08-31T16:42:27.204Z,44.72
2022-08-31T16:44:58.489Z,44.84
2022-08-31T16:47:28.966Z,45.55
2022-08-31T16:49:55.717Z,46.09
2022-08-31T16:52:26.535Z,45.33
2022-08-31T16:54:54.834Z,45.74
2022-08-31T16:57:26.930Z,45.83
2022-08-31T16:59:55.129Z,45.93
2022-08-31T17:02:22.939Z,46.26
2022-08-31T17:04:52.913Z,46.56
2022-08-31T17:07:20.003Z,46.73
2022-08-31T17:09:46.520Z,46.85
2022-08-31T17:12:16.976Z,47.08
2022-08-31T17:14:48.122Z,47.18
2022-08-31T17:17:16.821Z,46.76
2022-08-31T17:19:44.297Z,48.22
2022-08-31T17:22:16.942Z,46.65
2022-08-31T17:24:46.569Z,47.48
2022-08-31T17:27:16.771Z,47.57
2022-08-31T17:29:47.901Z,48.39
2022-08-31T17:32:16.348Z,48.54
2022-08-31T17:34:43.063Z,49.13
2022-08-31T17:37:14.301Z,48.42
2022-08-31T17:39:45.092Z,48.76
2022-08-31T17:42:14.988Z,49.93
2022-08-31T17:44:44.398Z,48.89
2022-08-31T17:47:11.551Z,49.25
2022-08-31T17:49:42.132Z,49.73
2022-08-31T17:52:11.269Z,50.55
2022-08-31T17:54:41.928Z,50.74
2022-08-31T17:57:19.809Z,50.80
2022-08-31T17:59:48.926Z,49.86
2022-08-31T18:02:18.911Z,49.75
2022-08-31T18:04:45.454Z,49.09
2022-08-31T18:07:12.177Z,48.53
2022-08-31T18:09:41.573Z,48.96
2022-08-31T18:12:09.209Z,48.77
2022-08-31T18:14:38.016Z,48.97
2022-08-31T18:17:08.392Z,48.71
2022-08-31T18:19:35.664Z,49.77
2022-08-31T18:22:03.058Z,49.92
2022-08-31T18:24:35.166Z,49.60
2022-08-31T18:27:03.999Z,49.84
2022-08-31T18:29:34.153Z,50.21
2022-08-31T18:32:05.130Z,50.84
2022-08-31T18:34:33.976Z,50.44
2022-08-31T18:37:02.191Z,50.51
2022-08-31T18:39:51.584Z,50.34
2022-08-31T18:42:37.854Z,50.81
2022-08-31T18:45:18.472Z,50.81
2022-08-31T18:48:07.114Z,50.72
2022-08-31T18:50:36.960Z,50.76
2022-08-31T18:53:08.172Z,51.17
2022-08-31T18:55:40.768Z,51.23
2022-08-31T18:58:07.161Z,50.95
2022-08-31T19:00:33.638Z,51.30
2022-08-31T19:03:01.966Z,51.60
2022-08-31T19:05:29.277Z,51.91
2022-08-31T19:07:57.893Z,52.09
2022-08-31T19:10:25.368Z,51.80
2022-08-31T19:12:52.197Z,52.05
2022-08-31T19:15:18.632Z,52.92
2022-08-31T19:17:49.132Z,52.17
2022-08-31T19:20:16.415Z,52.09
2022-08-31T19:22:42.905Z,52.71
2022-08-31T19:25:11.941Z,52.33
2022-08-31T19:27:39.081Z,52.79
2022-08-31T19:30:07.840Z,53.00
2022-08-31T19:32:36.722Z,52.67
2022-08-31T19:35:03.972Z,53.32
2022-08-31T19:37:30.337Z,52.77
2022-08-31T19:39:56.660Z,53.01
2022-08-31T19:42:40.257Z,52.96
2022-08-31T19:45:24.230Z,53.59
2022-08-31T19:47:51.204Z,53.02
2022-08-31T19:50:17.828Z,52.97
2022-08-31T19:52:44.426Z,53.46
2022-08-31T19:55:11.378Z,53.93
2022-08-31T19:57:38.938Z,53.78
2022-08-31T20:00:07.684Z,53.70
2022-08-31T20:02:35.177Z,54.38
2022-08-31T20:05:06.090Z,54.74
2022-08-31T20:07:34.213Z,54.18
2022-08-31T20:10:02.567Z,54.39
2022-08-31T20:12:29.670Z,54.76
2022-08-31T20:14:56.075Z,55.01
2022-08-31T20:17:22.473Z,55.62
2022-08-31T20:19:49.450Z,55.68
2022-08-31T20:22:15.807Z,55.42
2022-08-31T20:24:43.894Z,55.82
2022-08-31T20:27:15.029Z,55.72
2022-08-31T20:29:41.485Z,56.35
2022-08-31T20:32:08.067Z,56.71
2022-08-31T20:34:34.781Z,56.81
2022-08-31T20:37:02.428Z,56.30
2022-08-31T20:39:30.849Z,57.10
2022-08-31T20:41:58.931Z,57.29
2022-08-31T20:44:27.342Z,57.23
2022-08-31T20:47:15.384Z,57.49
2022-08-31T20:49:44.851Z,57.32
2022-08-31T20:52:13.440Z,57.68
2022-08-31T20:54:42.892Z,57.58
2022-08-31T20:57:10.393Z,58.08
2022-08-31T20:59:37.852Z,58.03
2022-08-31T21:02:07.201Z,58.85
2022-08-31T21:04:37.503Z,59.10
2022-08-31T21:07:05.621Z,58.64
2022-08-31T21:09:32.433Z,59.07
2022-08-31T21:11:59.718Z,58.80
2022-08-31T21:14:28.045Z,59.58
2022-08-31T21:16:55.914Z,59.59
2022-08-31T21:19:23.645Z,59.17
2022-08-31T21:21:52.458Z,59.37
2022-08-31T21:24:20.629Z,59.01
2022-08-31T21:26:47.229Z,58.73
2022-08-31T21:29:17.102Z,59.19
2022-08-31T21:31:51.968Z,59.55
2022-08-31T21:34:22.457Z,59.07
2022-08-31T21:36:49.677Z,59.56
2022-08-31T21:39:19.040Z,60.13
2022-08-31T21:41:46.432Z,59.60
2022-08-31T21:44:16.405Z,59.33
2022-08-31T21:46:49.817Z,59.82
2022-08-31T21:49:17.909Z,60.35
2022-08-31T21:51:56.320Z,60.23
2022-08-31T21:54:26.024Z,61.46
2022-08-31T21:56:55.433Z,60.80
2022-08-31T21:59:23.914Z,61.73
2022-08-31T22:01:55.311Z,62.78
2022-08-31T22:04:23.000Z,62.19
2022-08-31T22:06:49.645Z,61.79
2022-08-31T22:09:19.610Z,62.11
2022-08-31T22:11:50.575Z,62.53
2022-08-31T22:14:20.241Z,63.01
2022-08-31T22:16:48.399Z,63.17
2022-08-31T22:19:20.789Z,64.22
2022-08-31T22:21:50.151Z,64.97
2022-08-31T22:24:26.907Z,64.97
2022-08-31T22:26:53.997Z,64.69
2022-08-31T22:29:24.184Z,66.97
2022-08-31T22:31:52.708Z,66.67
2022-08-31T22:34:20.998Z,66.97
2022-08-31T22:36:52.062Z,67.64
2022-08-31T22:39:22.893Z,65.89
2022-08-31T22:41:49.884Z,66.59
2022-08-31T22:44:18.537Z,66.30
2022-08-31T22:46:46.655Z,65.70
2022-08-31T22:49:14.519Z,67.57
2022-08-31T22:51:43.074Z,66.00
2022-08-31T22:54:10.704Z,66.37
2022-08-31T22:56:39.031Z,65.97
2022-08-31T22:59:12.935Z,66.01
2022-08-31T23:01:54.681Z,66.50
2022-08-31T23:04:24.074Z,65.88
2022-08-31T23:06:51.647Z,66.09
2022-08-31T23:09:21.073Z,65.80
2022-08-31T23:11:49.056Z,66.10
2022-08-31T23:14:15.413Z,66.80
2022-08-31T23:16:47.356Z,65.85
2022-08-31T23:19:22.670Z,66.21
2022-08-31T23:21:56.936Z,66.38
2022-08-31T23:24:34.358Z,66.65
2022-08-31T23:27:04.177Z,67.03
2022-08-31T23:29:39.904Z,66.21
2022-08-31T23:32:11.021Z,66.86
2022-08-31T23:34:38.389Z,66.63
2022-08-31T23:37:08.488Z,66.30
2022-08-31T23:39:37.375Z,66.97
2022-08-31T23:42:03.948Z,66.08
2022-08-31T23:44:30.633Z,66.01
2022-08-31T23:46:57.169Z,66.24
2022-08-31T23:49:23.515Z,66.13
2022-08-31T23:51:49.953Z,66.34
2022-08-31T23:54:18.131Z,66.24
2022-08-31T23:56:46.825Z,65.86
2022-08-31T23:59:18.749Z,65.56
